Time;durP1;ratioP1;P1;durP2;ratioP2;P2;SDS_P1;SDS_P2;PMS_P1;PMS_P2;Temp;Humidity;BMP_temperature;BMP_pressure;BME280_temperature;BME280_humidity;BME280_pressure;Samples;Min_cycle;Max_cycle;Signal;HPM_P1;HPM_P2
2021/08/25 00:00:06;;;;;;;7.15;4.55;;;;;;;;;;4965107;28;20133;-77
2021/08/25 00:02:35;;;;;;;6.85;4.30;;;;;;;;;;4973709;28;20499;-77
2021/08/25 00:05:06;;;;;;;5.88;4.07;;;;;;;;;;4955465;28;20411;-77
2021/08/25 00:07:34;;;;;;;6.63;4.18;;;;;;;;;;4954953;29;20051;-77
2021/08/25 00:10:03;;;;;;;6.53;4.00;;;;;;;;;;4954467;29;20134;-77
2021/08/25 00:12:31;;;;;;;6.07;3.70;;;;;;;;;;4954750;29;20059;-77
2021/08/25 00:14:59;;;;;;;8.82;4.47;;;;;;;;;;4953821;29;20051;-77
2021/08/25 00:17:27;;;;;;;5.93;3.65;;;;;;;;;;4953798;28;20062;-77
2021/08/25 00:19:56;;;;;;;5.57;3.72;;;;;;;;;;4954183;29;20051;-77
2021/08/25 00:22:25;;;;;;;7.82;4.30;;;;;;;;;;4954105;29;20057;-77
2021/08/25 00:24:54;;;;;;;6.43;3.47;;;;;;;;;;4953655;29;20055;-77
2021/08/25 00:27:22;;;;;;;7.82;4.03;;;;;;;;;;4954243;29;20044;-77
2021/08/25 00:29:50;;;;;;;5.75;3.90;;;;;;;;;;4954032;29;20138;-77
2021/08/25 00:32:19;;;;;;;7.00;3.95;;;;;;;;;;4953986;29;20109;-77
2021/08/25 00:34:47;;;;;;;8.35;3.92;;;;;;;;;;4953714;29;20130;-77
2021/08/25 00:37:15;;;;;;;5.50;3.75;;;;;;;;;;4953819;29;20571;-77
2021/08/25 00:39:45;;;;;;;5.88;3.88;;;;;;;;;;4953894;29;20058;-77
2021/08/25 00:42:13;;;;;;;5.43;3.70;;;;;;;;;;4953988;29;20047;-77
2021/08/25 00:44:42;;;;;;;6.38;3.60;;;;;;;;;;4953809;28;20142;-77
2021/08/25 00:47:10;;;;;;;6.32;4.43;;;;;;;;;;4953440;29;20435;-77
2021/08/25 00:49:38;;;;;;;5.75;3.65;;;;;;;;;;4954180;29;20146;-77
2021/08/25 00:52:07;;;;;;;6.90;3.63;;;;;;;;;;4953900;29;20139;-77
2021/08/25 00:54:35;;;;;;;6.50;3.78;;;;;;;;;;4953271;29;20057;-77
2021/08/25 00:57:05;;;;;;;5.00;3.08;;;;;;;;;;4943874;28;20062;-77
2021/08/25 00:59:34;;;;;;;4.20;3.13;;;;;;;;;;4934472;29;20048;-77
2021/08/25 01:02:05;;;;;;;8.07;3.88;;;;;;;;;;4934834;29;20059;-77
2021/08/25 01:04:36;;;;;;;8.50;3.40;;;;;;;;;;4967760;23;20043;-90
2021/08/25 01:07:05;;;;;;;6.25;3.78;;;;;;;;;;4960044;28;20051;-90
2021/08/25 01:09:33;;;;;;;7.50;3.85;;;;;;;;;;4954709;29;20075;-90
2021/08/25 01:12:01;;;;;;;6.90;4.00;;;;;;;;;;4964586;28;20055;-90
2021/08/25 01:14:36;;;;;;;7.10;3.88;;;;;;;;;;4957193;28;20081;-90
2021/08/25 01:17:05;;;;;;;5.40;3.55;;;;;;;;;;4973488;28;20429;-89
2021/08/25 01:19:36;;;;;;;6.93;3.65;;;;;;;;;;4974222;28;20161;-90
2021/08/25 01:22:05;;;;;;;6.68;4.15;;;;;;;;;;4974912;28;20050;-90
2021/08/25 01:24:33;;;;;;;6.25;4.13;;;;;;;;;;4973968;28;20050;-90
2021/08/25 01:27:02;;;;;;;6.75;4.25;;;;;;;;;;4974041;28;20614;-90
2021/08/25 01:29:32;;;;;;;6.70;3.97;;;;;;;;;;4973323;28;20082;-90
2021/08/25 01:32:01;;;;;;;4.90;3.58;;;;;;;;;;4974176;28;20051;-90
2021/08/25 01:34:29;;;;;;;6.35;4.03;;;;;;;;;;4972599;28;20047;-90
2021/08/25 01:36:57;;;;;;;8.20;4.03;;;;;;;;;;4974139;28;20042;-90
2021/08/25 01:39:26;;;;;;;6.07;4.05;;;;;;;;;;4974518;28;20047;-90
2021/08/25 01:41:54;;;;;;;6.55;4.20;;;;;;;;;;4974057;28;20082;-90
2021/08/25 01:44:22;;;;;;;7.35;4.30;;;;;;;;;;4973101;28;20063;-90
2021/08/25 01:46:52;;;;;;;6.45;4.22;;;;;;;;;;4973694;28;20054;-90
2021/08/25 01:49:20;;;;;;;8.05;4.45;;;;;;;;;;4973210;28;20050;-90
2021/08/25 01:51:48;;;;;;;7.70;4.43;;;;;;;;;;4973771;28;20141;-89
2021/08/25 01:54:16;;;;;;;6.25;3.97;;;;;;;;;;4972706;28;20134;-90
2021/08/25 01:56:45;;;;;;;7.45;4.20;;;;;;;;;;4966296;28;20043;-90
2021/08/25 01:59:13;;;;;;;6.55;3.80;;;;;;;;;;4956440;28;20054;-90
2021/08/25 02:01:44;;;;;;;6.32;3.72;;;;;;;;;;4954168;29;20043;-90
2021/08/25 02:04:14;;;;;;;7.05;3.90;;;;;;;;;;4971980;28;20058;-90
2021/08/25 02:06:42;;;;;;;8.57;4.65;;;;;;;;;;4973456;28;20061;-90
2021/08/25 02:09:11;;;;;;;6.57;3.92;;;;;;;;;;4973328;28;20130;-90
2021/08/25 02:11:39;;;;;;;9.48;4.18;;;;;;;;;;4973505;28;20047;-90
2021/08/25 02:14:07;;;;;;;7.80;4.18;;;;;;;;;;4973391;28;20054;-90
2021/08/25 02:16:36;;;;;;;7.75;4.47;;;;;;;;;;4974837;28;20151;-90
2021/08/25 02:19:04;;;;;;;6.88;4.32;;;;;;;;;;4974671;28;20050;-90
2021/08/25 02:21:34;;;;;;;8.45;4.82;;;;;;;;;;4974305;28;20133;-89
2021/08/25 02:24:02;;;;;;;8.40;4.28;;;;;;;;;;4973178;28;20078;-90
2021/08/25 02:26:31;;;;;;;6.53;4.00;;;;;;;;;;4973498;28;20523;-90
2021/08/25 02:28:59;;;;;;;7.93;4.45;;;;;;;;;;4973138;28;20371;-90
2021/08/25 02:31:28;;;;;;;7.93;4.05;;;;;;;;;;4973618;28;20165;-89
2021/08/25 02:33:56;;;;;;;8.70;4.35;;;;;;;;;;4972845;28;20134;-89
2021/08/25 02:36:24;;;;;;;8.52;4.47;;;;;;;;;;4974207;28;20137;-90
2021/08/25 02:38:54;;;;;;;7.85;4.65;;;;;;;;;;4973304;28;20086;-89
2021/08/25 02:41:22;;;;;;;6.40;4.10;;;;;;;;;;4973027;28;20054;-90
2021/08/25 02:43:51;;;;;;;7.18;4.40;;;;;;;;;;4972411;28;20081;-90
2021/08/25 02:46:19;;;;;;;8.63;4.57;;;;;;;;;;4972467;28;20503;-89
2021/08/25 02:48:48;;;;;;;8.75;3.90;;;;;;;;;;4972490;28;20082;-90
2021/08/25 02:51:16;;;;;;;6.30;4.10;;;;;;;;;;4973519;28;20050;-90
2021/08/25 02:53:44;;;;;;;7.68;4.30;;;;;;;;;;4971928;28;20241;-90
2021/08/25 02:56:14;;;;;;;7.80;4.30;;;;;;;;;;4968877;28;20509;-89
2021/08/25 02:58:42;;;;;;;8.80;4.72;;;;;;;;;;4953410;29;20134;-90
2021/08/25 03:01:10;;;;;;;7.95;4.53;;;;;;;;;;4953627;29;20106;-90
2021/08/25 03:03:39;;;;;;;7.35;4.28;;;;;;;;;;4952023;29;20540;-90
2021/08/25 03:06:07;;;;;;;7.22;4.22;;;;;;;;;;4953695;29;20054;-89
2021/08/25 03:08:38;;;;;;;7.80;4.72;;;;;;;;;;4953329;29;20061;-90
2021/08/25 03:11:06;;;;;;;8.43;4.72;;;;;;;;;;4963879;28;20113;-90
2021/08/25 03:13:36;;;;;;;8.52;4.38;;;;;;;;;;4971421;28;20050;-90
2021/08/25 03:16:05;;;;;;;8.88;4.60;;;;;;;;;;4972062;28;20110;-89
2021/08/25 03:18:33;;;;;;;9.57;4.75;;;;;;;;;;4972691;28;20057;-90
2021/08/25 03:21:01;;;;;;;8.07;4.47;;;;;;;;;;4972410;28;20054;-89
2021/08/25 03:23:30;;;;;;;9.23;4.65;;;;;;;;;;4971977;28;20410;-89
2021/08/25 03:25:58;;;;;;;9.32;4.68;;;;;;;;;;4897678;28;20150;-89
2021/08/25 03:28:26;;;;;;;10.60;5.10;;;;;;;;;;320367;28;10023128;-90
2021/08/25 03:30:57;;;;;;;9.10;5.15;;;;;;;;;;4968838;28;20081;-90
2021/08/25 03:33:26;;;;;;;8.05;4.45;;;;;;;;;;4971393;28;20062;-90
2021/08/25 03:35:54;;;;;;;10.13;4.65;;;;;;;;;;4971865;28;20070;-90
2021/08/25 03:38:22;;;;;;;7.10;4.22;;;;;;;;;;4971842;28;20054;-90
2021/08/25 03:40:50;;;;;;;7.90;4.40;;;;;;;;;;4971689;28;20133;-90
2021/08/25 03:43:19;;;;;;;8.55;4.70;;;;;;;;;;4972221;28;20586;-89
2021/08/25 03:45:47;;;;;;;10.20;5.25;;;;;;;;;;4948644;28;20059;-90
2021/08/25 03:48:17;;;;;;;8.30;4.90;;;;;;;;;;4962193;28;20129;-89
2021/08/25 03:50:45;;;;;;;8.40;4.80;;;;;;;;;;4971840;28;20138;-90
2021/08/25 03:53:14;;;;;;;7.75;4.47;;;;;;;;;;4974215;28;20532;-89
2021/08/25 03:55:42;;;;;;;8.20;4.82;;;;;;;;;;4974385;28;20046;-90
2021/08/25 03:58:10;;;;;;;5.88;4.05;;;;;;;;;;4955483;28;20051;-90
2021/08/25 04:00:39;;;;;;;7.35;4.78;;;;;;;;;;4965042;28;20050;-90
2021/08/25 04:03:07;;;;;;;8.10;4.38;;;;;;;;;;4975189;28;20137;-90
2021/08/25 04:05:37;;;;;;;7.40;4.60;;;;;;;;;;4974071;28;20082;-89
2021/08/25 04:08:05;;;;;;;9.63;4.60;;;;;;;;;;4957306;28;20143;-89
2021/08/25 04:10:34;;;;;;;6.95;3.90;;;;;;;;;;4974530;28;20121;-90
2021/08/25 04:13:02;;;;;;;8.63;4.55;;;;;;;;;;4974297;28;20585;-89
2021/08/25 04:15:30;;;;;;;9.35;5.28;;;;;;;;;;4974566;28;20149;-90
2021/08/25 04:17:59;;;;;;;7.28;4.38;;;;;;;;;;4975163;28;20229;-89
2021/08/25 04:20:27;;;;;;;10.07;4.70;;;;;;;;;;4974322;28;20502;-89
2021/08/25 04:22:57;;;;;;;8.95;4.90;;;;;;;;;;4975264;28;20139;-89
2021/08/25 04:25:25;;;;;;;7.50;4.72;;;;;;;;;;4974113;28;20061;-89
2021/08/25 04:27:53;;;;;;;7.70;4.45;;;;;;;;;;4974421;28;20558;-89
2021/08/25 04:30:21;;;;;;;7.93;4.85;;;;;;;;;;4974653;28;20109;-89
2021/08/25 04:32:50;;;;;;;9.82;4.78;;;;;;;;;;4974502;28;20082;-89
2021/08/25 04:35:18;;;;;;;8.20;4.50;;;;;;;;;;4974167;28;20137;-89
2021/08/25 04:37:46;;;;;;;7.88;4.70;;;;;;;;;;4974741;28;20047;-89
2021/08/25 04:40:16;;;;;;;7.85;4.80;;;;;;;;;;4974358;28;20054;-89
2021/08/25 04:42:44;;;;;;;9.90;5.13;;;;;;;;;;4974210;28;20061;-89
2021/08/25 04:45:14;;;;;;;7.72;4.35;;;;;;;;;;4974239;28;20149;-90
2021/08/25 04:47:42;;;;;;;8.32;4.88;;;;;;;;;;4974403;28;20047;-90
2021/08/25 04:50:11;;;;;;;6.35;4.40;;;;;;;;;;4974386;28;20061;-89
2021/08/25 04:52:39;;;;;;;8.60;5.10;;;;;;;;;;4957189;28;20093;-89
2021/08/25 04:55:08;;;;;;;9.00;4.70;;;;;;;;;;4974198;28;20050;-89
2021/08/25 04:57:38;;;;;;;6.82;4.35;;;;;;;;;;4959472;28;20719;-89
2021/08/25 05:00:07;;;;;;;9.18;5.32;;;;;;;;;;4955714;29;20058;-89
2021/08/25 05:02:36;;;;;;;8.43;4.80;;;;;;;;;;4955040;28;20082;-89
2021/08/25 05:05:04;;;;;;;10.43;4.97;;;;;;;;;;4953824;28;20518;-89
2021/08/25 05:07:33;;;;;;;7.78;4.78;;;;;;;;;;4954593;29;20563;-89
2021/08/25 05:10:01;;;;;;;8.05;4.82;;;;;;;;;;4966731;28;20141;-89
2021/08/25 05:12:29;;;;;;;8.45;5.20;;;;;;;;;;4974228;28;20054;-89
2021/08/25 05:14:59;;;;;;;7.95;4.57;;;;;;;;;;4973216;28;20430;-89
2021/08/25 05:17:27;;;;;;;7.60;4.78;;;;;;;;;;4974124;28;20047;-89
2021/08/25 05:19:58;;;;;;;9.13;4.68;;;;;;;;;;4973548;28;20054;-89
2021/08/25 05:22:26;;;;;;;8.82;5.55;;;;;;;;;;4973188;28;20051;-89
2021/08/25 05:24:56;;;;;;;9.02;4.68;;;;;;;;;;4972809;28;20051;-89
2021/08/25 05:27:26;;;;;;;9.60;5.55;;;;;;;;;;4973751;28;20105;-89
2021/08/25 05:29:55;;;;;;;10.02;4.35;;;;;;;;;;4973957;28;20091;-89
2021/08/25 05:32:26;;;;;;;10.75;5.68;;;;;;;;;;4973732;28;20055;-89
2021/08/25 05:34:54;;;;;;;8.85;4.60;;;;;;;;;;4973906;28;20134;-88
2021/08/25 05:37:23;;;;;;;9.55;5.15;;;;;;;;;;4974150;28;20130;-89
2021/08/25 05:39:51;;;;;;;9.50;5.50;;;;;;;;;;4974171;28;20518;-89
2021/08/25 05:42:19;;;;;;;8.05;4.85;;;;;;;;;;4973718;28;20057;-89
2021/08/25 05:44:48;;;;;;;10.50;5.13;;;;;;;;;;4972875;28;20075;-89
2021/08/25 05:47:16;;;;;;;8.98;4.45;;;;;;;;;;4973600;28;20050;-89
2021/08/25 05:49:46;;;;;;;9.73;4.97;;;;;;;;;;4972859;28;20049;-89
2021/08/25 05:52:14;;;;;;;14.18;6.00;;;;;;;;;;4973525;28;20407;-89
2021/08/25 05:54:43;;;;;;;7.95;5.10;;;;;;;;;;4972834;28;20108;-89
2021/08/25 05:57:11;;;;;;;9.52;5.75;;;;;;;;;;4973241;28;20050;-89
2021/08/25 05:59:39;;;;;;;9.65;4.78;;;;;;;;;;4972742;28;20050;-89
2021/08/25 06:02:08;;;;;;;8.93;5.55;;;;;;;;;;4973219;28;20138;-89
2021/08/25 06:04:36;;;;;;;11.90;5.78;;;;;;;;;;4969816;28;20054;-89
2021/08/25 06:07:10;;;;;;;10.15;5.82;;;;;;;;;;4973607;28;20138;-89
2021/08/25 06:09:38;;;;;;;10.70;6.00;;;;;;;;;;4972817;28;20050;-89
2021/08/25 06:12:09;;;;;;;11.43;5.93;;;;;;;;;;4973649;28;20105;-89
2021/08/25 06:14:38;;;;;;;10.50;5.20;;;;;;;;;;4971942;28;20518;-89
2021/08/25 06:17:07;;;;;;;12.15;6.00;;;;;;;;;;4972921;28;20495;-89
2021/08/25 06:19:36;;;;;;;10.00;5.43;;;;;;;;;;4973280;28;20142;-89
2021/08/25 06:22:04;;;;;;;9.32;5.47;;;;;;;;;;4973604;28;20078;-89
2021/08/25 06:24:34;;;;;;;8.38;4.95;;;;;;;;;;4972553;28;20082;-89
2021/08/25 06:27:03;;;;;;;8.10;5.25;;;;;;;;;;4972710;28;20396;-89
2021/08/25 06:29:31;;;;;;;14.23;5.82;;;;;;;;;;4973309;28;20415;-89
2021/08/25 06:31:59;;;;;;;9.30;5.70;;;;;;;;;;4973243;28;20360;-89
2021/08/25 06:34:28;;;;;;;8.30;5.00;;;;;;;;;;4972937;28;20093;-90
2021/08/25 06:36:56;;;;;;;9.32;5.47;;;;;;;;;;4975181;28;20142;-89
2021/08/25 06:39:24;;;;;;;11.93;5.38;;;;;;;;;;4972288;28;20586;-89
2021/08/25 06:41:54;;;;;;;9.50;5.18;;;;;;;;;;4973207;28;20078;-90
2021/08/25 06:44:23;;;;;;;10.10;5.45;;;;;;;;;;4971906;28;20408;-89
2021/08/25 06:46:51;;;;;;;9.35;4.85;;;;;;;;;;4972887;28;20545;-89
2021/08/25 06:49:20;;;;;;;9.20;5.28;;;;;;;;;;4972929;28;20055;-89
2021/08/25 06:51:48;;;;;;;9.23;4.50;;;;;;;;;;4972388;28;20136;-90
2021/08/25 06:54:17;;;;;;;8.18;5.03;;;;;;;;;;4972297;28;20475;-89
2021/08/25 06:56:45;;;;;;;9.80;4.72;;;;;;;;;;4964625;28;20075;-89
2021/08/25 06:59:16;;;;;;;9.63;5.20;;;;;;;;;;4953879;29;20162;-89
2021/08/25 07:01:45;;;;;;;10.07;4.63;;;;;;;;;;4953729;29;20051;-86
2021/08/25 07:04:13;;;;;;;7.18;4.93;;;;;;;;;;4952466;28;20102;-89
2021/08/25 07:06:42;;;;;;;8.85;4.93;;;;;;;;;;4953532;29;20142;-89
2021/08/25 07:09:10;;;;;;;7.75;4.95;;;;;;;;;;4964488;28;20450;-89
2021/08/25 07:11:39;;;;;;;9.23;4.45;;;;;;;;;;4972711;28;20142;-90
2021/08/25 07:14:07;;;;;;;7.75;4.15;;;;;;;;;;4972041;28;20051;-89
2021/08/25 07:16:37;;;;;;;10.20;3.95;;;;;;;;;;4973286;28;20050;-90
2021/08/25 07:19:06;;;;;;;8.30;4.38;;;;;;;;;;4972705;28;20051;-90
2021/08/25 07:21:34;;;;;;;9.48;4.07;;;;;;;;;;4973330;28;20203;-90
2021/08/25 07:24:03;;;;;;;7.50;4.25;;;;;;;;;;4973648;28;20526;-90
2021/08/25 07:26:32;;;;;;;8.35;4.32;;;;;;;;;;4972588;28;20522;-90
2021/08/25 07:29:01;;;;;;;7.97;3.92;;;;;;;;;;4976710;28;20059;-89
2021/08/25 07:31:30;;;;;;;6.00;4.05;;;;;;;;;;4976137;28;20117;-90
2021/08/25 07:33:59;;;;;;;7.75;4.38;;;;;;;;;;4975826;28;20110;-90
2021/08/25 07:36:28;;;;;;;8.27;3.70;;;;;;;;;;4976177;28;20546;-89
2021/08/25 07:38:56;;;;;;;7.00;3.40;;;;;;;;;;4976482;28;20085;-90
2021/08/25 07:41:25;;;;;;;10.18;4.25;;;;;;;;;;4975796;28;20491;-89
2021/08/25 07:43:54;;;;;;;8.25;3.85;;;;;;;;;;4975558;28;20053;-90
2021/08/25 07:46:24;;;;;;;7.50;3.95;;;;;;;;;;4976597;28;20150;-90
2021/08/25 07:48:53;;;;;;;5.68;3.78;;;;;;;;;;4976125;28;20055;-90
2021/08/25 07:51:22;;;;;;;6.30;3.75;;;;;;;;;;4975761;28;20078;-89
2021/08/25 07:53:51;;;;;;;5.68;3.50;;;;;;;;;;4975018;28;20050;-90
2021/08/25 07:56:19;;;;;;;7.03;3.83;;;;;;;;;;4971277;28;20478;-90
2021/08/25 07:58:47;;;;;;;8.40;4.00;;;;;;;;;;4960533;28;20617;-89
2021/08/25 08:01:16;;;;;;;7.38;3.90;;;;;;;;;;4975171;28;20134;-88
2021/08/25 08:03:45;;;;;;;4.82;3.17;;;;;;;;;;4974006;28;20455;-91
2021/08/25 08:06:13;;;;;;;7.70;4.25;;;;;;;;;;4975103;28;20085;-90
2021/08/25 08:08:43;;;;;;;7.07;3.45;;;;;;;;;;4958789;28;20046;-91
2021/08/25 08:11:12;;;;;;;4.65;2.83;;;;;;;;;;4976004;28;20082;-90
2021/08/25 08:13:40;;;;;;;6.50;4.07;;;;;;;;;;4975931;28;20086;-90
2021/08/25 08:16:09;;;;;;;6.47;4.00;;;;;;;;;;4975844;28;20474;-89
2021/08/25 08:18:41;;;;;;;6.28;3.53;;;;;;;;;;4974940;28;20078;-90
2021/08/25 08:21:09;;;;;;;6.03;3.58;;;;;;;;;;4975069;28;20109;-90
2021/08/25 08:23:38;;;;;;;6.57;3.80;;;;;;;;;;4974188;28;20137;-87
2021/08/25 08:26:08;;;;;;;5.10;3.25;;;;;;;;;;4975328;28;20286;-90
2021/08/25 08:28:36;;;;;;;7.00;3.38;;;;;;;;;;4975357;28;20081;-90
2021/08/25 08:31:04;;;;;;;5.55;3.03;;;;;;;;;;4975267;28;20086;-90
2021/08/25 08:33:33;;;;;;;7.10;3.45;;;;;;;;;;4974378;28;20050;-90
2021/08/25 08:36:03;;;;;;;10.02;4.35;;;;;;;;;;4975421;28;20046;-91
2021/08/25 08:38:34;;;;;;;7.63;3.47;;;;;;;;;;4974568;28;20503;-89
2021/08/25 08:41:02;;;;;;;8.95;4.32;;;;;;;;;;4974762;28;20137;-89
2021/08/25 08:43:32;;;;;;;7.60;3.72;;;;;;;;;;4974427;28;20117;-88
2021/08/25 08:46:03;;;;;;;8.77;3.80;;;;;;;;;;4974066;28;20097;-90
2021/08/25 08:48:34;;;;;;;7.15;3.40;;;;;;;;;;4975149;28;20046;-90
2021/08/25 08:51:03;;;;;;;9.90;4.22;;;;;;;;;;4974780;28;20490;-90
2021/08/25 08:53:31;;;;;;;6.60;3.42;;;;;;;;;;4973955;28;20105;-90
2021/08/25 08:56:01;;;;;;;5.07;3.10;;;;;;;;;;4973487;28;20672;-90
2021/08/25 08:58:29;;;;;;;7.05;3.47;;;;;;;;;;4956553;29;20055;-91
2021/08/25 09:01:03;;;;;;;5.80;3.40;;;;;;;;;;4957586;29;20055;-91
2021/08/25 09:03:35;;;;;;;6.53;3.42;;;;;;;;;;4959156;28;20074;-90
2021/08/25 09:06:04;;;;;;;5.57;3.28;;;;;;;;;;4955452;29;20075;-90
2021/08/25 09:08:33;;;;;;;4.70;3.42;;;;;;;;;;4969828;28;20458;-90
2021/08/25 09:11:03;;;;;;;6.05;3.25;;;;;;;;;;4974853;28;20047;-88
2021/08/25 09:13:35;;;;;;;5.78;3.08;;;;;;;;;;4974848;28;20058;-90
2021/08/25 09:16:06;;;;;;;6.55;3.30;;;;;;;;;;4975863;28;20078;-90
2021/08/25 09:18:35;;;;;;;4.80;2.80;;;;;;;;;;4975438;28;20186;-91
2021/08/25 09:21:04;;;;;;;5.20;2.92;;;;;;;;;;4975269;28;20110;-87
2021/08/25 09:23:33;;;;;;;6.13;2.83;;;;;;;;;;4975501;28;20050;-88
2021/08/25 09:26:03;;;;;;;7.15;3.40;;;;;;;;;;4976510;28;20054;-89
2021/08/25 09:28:34;;;;;;;4.68;2.90;;;;;;;;;;4975065;28;20082;-92
2021/08/25 09:31:04;;;;;;;5.03;2.47;;;;;;;;;;4977615;28;20134;-90
2021/08/25 09:33:35;;;;;;;5.68;2.88;;;;;;;;;;4963590;28;20050;-89
2021/08/25 09:36:10;;;;;;;5.90;3.10;;;;;;;;;;4953601;29;20146;-88
2021/08/25 09:38:42;;;;;;;7.00;2.97;;;;;;;;;;4957753;29;20059;-91
2021/08/25 09:41:13;;;;;;;5.60;2.75;;;;;;;;;;4942682;29;20492;-91
2021/08/25 09:43:42;;;;;;;5.22;2.70;;;;;;;;;;4935484;29;20130;-91
2021/08/25 09:46:21;;;;;;;7.22;3.20;;;;;;;;;;4933963;29;20048;-89
2021/08/25 09:48:52;;;;;;;5.88;2.60;;;;;;;;;;4935737;29;20048;-89
2021/08/25 09:51:21;;;;;;;6.40;3.40;;;;;;;;;;4932533;29;20051;-89
2021/08/25 09:53:50;;;;;;;8.95;3.15;;;;;;;;;;4933310;29;20053;-90
2021/08/25 09:56:26;;;;;;;6.50;3.05;;;;;;;;;;4933131;29;20043;-87
2021/08/25 09:58:54;;;;;;;3.83;2.20;;;;;;;;;;4933376;29;20047;-89
2021/08/25 10:01:23;;;;;;;6.93;3.53;;;;;;;;;;4951154;29;20051;-89
2021/08/25 10:03:54;;;;;;;6.68;2.42;;;;;;;;;;4954001;28;20055;-91
2021/08/25 10:06:23;;;;;;;5.78;2.63;;;;;;;;;;4954979;29;20484;-92
2021/08/25 10:08:52;;;;;;;6.53;2.70;;;;;;;;;;4955857;28;20135;-90
2021/08/25 10:11:25;;;;;;;7.32;2.90;;;;;;;;;;4955082;29;20062;-91
2021/08/25 10:13:54;;;;;;;4.25;2.60;;;;;;;;;;4954471;28;20142;-92
2021/08/25 10:16:39;;;;;;;4.30;2.50;;;;;;;;;;4967493;28;20058;-88
2021/08/25 10:19:27;;;;;;;5.93;2.70;;;;;;;;;;4974615;28;20066;-89
2021/08/25 10:21:58;;;;;;;4.18;2.22;;;;;;;;;;4973361;28;20102;-91
2021/08/25 10:24:27;;;;;;;5.82;2.72;;;;;;;;;;4973929;28;20047;-90
2021/08/25 10:27:17;;;;;;;5.68;2.42;;;;;;;;;;4974189;28;20052;-89
2021/08/25 10:33:10;;;;;;;4.95;2.78;;;;;;;;;;4969855;28;20072;-91
2021/08/25 10:35:41;;;;;;;9.13;4.40;;;;;;;;;;4973839;28;20151;-91
2021/08/25 10:38:27;;;;;;;7.10;3.67;;;;;;;;;;4957600;28;20077;-93
2021/08/25 10:41:00;;;;;;;7.93;3.60;;;;;;;;;;4974951;28;20090;-92
2021/08/25 10:43:36;;;;;;;6.38;2.90;;;;;;;;;;4956832;28;20531;-91
2021/08/25 10:46:05;;;;;;;5.53;3.10;;;;;;;;;;4957746;28;20078;-92
2021/08/25 10:48:41;;;;;;;5.32;2.30;;;;;;;;;;4973814;28;20117;-92
2021/08/25 10:51:29;;;;;;;7.63;2.88;;;;;;;;;;4973907;28;20081;-90
2021/08/25 10:54:00;;;;;;;8.10;3.13;;;;;;;;;;4955638;28;20051;-93
2021/08/25 10:56:29;;;;;;;6.65;3.17;;;;;;;;;;4955414;28;20047;-90
2021/08/25 10:59:00;;;;;;;7.07;3.10;;;;;;;;;;4973006;28;20410;-90
2021/08/25 11:01:29;;;;;;;7.18;2.47;;;;;;;;;;4973270;28;20538;-91
2021/08/25 11:03:59;;;;;;;5.32;2.50;;;;;;;;;;4952387;28;20110;-92
2021/08/25 11:06:28;;;;;;;4.70;2.42;;;;;;;;;;4953676;29;20051;-89
2021/08/25 11:09:11;;;;;;;5.25;2.75;;;;;;;;;;4953861;29;20086;-92
2021/08/25 11:11:41;;;;;;;6.65;2.95;;;;;;;;;;4954599;29;20582;-93
2021/08/25 11:14:09;;;;;;;7.55;3.40;;;;;;;;;;4953142;28;20074;-90
2021/08/25 11:16:38;;;;;;;6.82;2.70;;;;;;;;;;4953111;29;20043;-91
2021/08/25 11:19:07;;;;;;;6.72;2.72;;;;;;;;;;4954564;29;20384;-92
2021/08/25 11:21:40;;;;;;;4.82;2.53;;;;;;;;;;4954095;29;20141;-91
2021/08/25 11:24:09;;;;;;;5.47;2.60;;;;;;;;;;4952761;29;20047;-92
2021/08/25 11:26:52;;;;;;;5.88;2.75;;;;;;;;;;4956151;28;20392;-93
2021/08/25 11:29:26;;;;;;;6.88;2.85;;;;;;;;;;4953812;28;20055;-90
2021/08/25 11:31:54;;;;;;;6.28;2.67;;;;;;;;;;4953890;29;20145;-91
2021/08/25 11:34:23;;;;;;;8.65;2.97;;;;;;;;;;4953375;28;20071;-91
2021/08/25 11:37:08;;;;;;;5.07;2.75;;;;;;;;;;4954201;29;20051;-90
2021/08/25 11:39:36;;;;;;;;;;;;;;;;;;4953240;29;20047;-90
2021/08/25 11:42:05;;;;;;;7.70;3.25;;;;;;;;;;4954246;28;20013;-92
2021/08/25 11:44:39;;;;;;;5.72;2.90;;;;;;;;;;4953147;28;20059;-89
2021/08/25 11:47:14;;;;;;;5.67;2.93;;;;;;;;;;4953820;29;20146;-88
2021/08/25 11:49:44;;;;;;;8.07;3.13;;;;;;;;;;4953932;28;20047;-92
2021/08/25 11:52:14;;;;;;;5.97;2.65;;;;;;;;;;4954054;28;20058;-92
2021/08/25 11:54:42;;;;;;;5.57;2.58;;;;;;;;;;4953446;28;20559;-92
2021/08/25 11:57:16;;;;;;;7.22;3.13;;;;;;;;;;4946117;28;20043;-92
2021/08/25 12:00:00;;;;;;;7.30;3.03;;;;;;;;;;4954176;29;20055;-92
2021/08/25 12:02:30;;;;;;;8.77;2.97;;;;;;;;;;4937003;29;20087;-92
2021/08/25 12:05:19;;;;;;;7.00;3.10;;;;;;;;;;4948118;28;20081;-90
2021/08/25 12:08:01;;;;;;;6.38;3.03;;;;;;;;;;4954042;28;20109;-92
2021/08/25 12:10:31;;;;;;;4.57;2.50;;;;;;;;;;4954772;28;20118;-91
2021/08/25 12:13:00;;;;;;;5.45;3.20;;;;;;;;;;4955563;28;20058;-92
2021/08/25 12:15:44;;;;;;;7.88;3.30;;;;;;;;;;4957981;29;20456;-93
2021/08/25 12:18:14;;;;;;;6.72;3.30;;;;;;;;;;4957490;28;20078;-89
2021/08/25 12:20:44;;;;;;;6.07;3.03;;;;;;;;;;4956982;29;20047;-92
2021/08/25 12:23:14;;;;;;;5.65;2.70;;;;;;;;;;4958053;28;20542;-92
2021/08/25 12:25:44;;;;;;;4.97;2.65;;;;;;;;;;4954510;29;20057;-92
2021/08/25 12:28:13;;;;;;;8.20;3.42;;;;;;;;;;4956595;29;20051;-90
2021/08/25 12:30:42;;;;;;;9.05;3.20;;;;;;;;;;4956581;28;20061;-89
2021/08/25 12:33:12;;;;;;;5.25;2.85;;;;;;;;;;4956858;29;20051;-89
2021/08/25 12:35:42;;;;;;;5.68;2.90;;;;;;;;;;4956574;28;20566;-90
2021/08/25 12:38:11;;;;;;;5.90;3.20;;;;;;;;;;4956417;29;20146;-92
2021/08/25 12:40:39;;;;;;;5.95;2.75;;;;;;;;;;4954572;29;20419;-92
2021/08/25 12:43:07;;;;;;;7.65;2.70;;;;;;;;;;4954609;29;20507;-90
2021/08/25 12:45:36;;;;;;;7.35;3.13;;;;;;;;;;4956002;28;20083;-91
2021/08/25 12:48:06;;;;;;;4.88;2.67;;;;;;;;;;4957224;28;20047;-91
2021/08/25 12:50:35;;;;;;;5.13;2.75;;;;;;;;;;4957727;29;20054;-92
2021/08/25 12:53:06;;;;;;;6.65;2.67;;;;;;;;;;4956803;29;20059;-92
2021/08/25 12:55:35;;;;;;;7.00;3.10;;;;;;;;;;4956219;28;20142;-92
2021/08/25 12:58:03;;;;;;;8.02;3.15;;;;;;;;;;4938553;28;20385;-90
2021/08/25 13:00:37;;;;;;;5.75;3.47;;;;;;;;;;4936790;29;20063;-90
2021/08/25 13:03:06;;;;;;;7.57;3.63;;;;;;;;;;4936269;29;20044;-91
2021/08/25 13:05:35;;;;;;;6.43;2.90;;;;;;;;;;4961273;28;20150;-92
2021/08/25 13:08:06;;;;;;;6.95;3.10;;;;;;;;;;4957335;28;20050;-91
2021/08/25 13:10:35;;;;;;;7.05;2.92;;;;;;;;;;4958851;28;20093;-92
2021/08/25 13:13:06;;;;;;;6.55;2.80;;;;;;;;;;4976368;28;20059;-92
2021/08/25 13:15:34;;;;;;;8.27;2.95;;;;;;;;;;4974121;28;20497;-92
2021/08/25 13:18:03;;;;;;;6.57;3.20;;;;;;;;;;4958708;28;20125;-92
2021/08/25 13:20:32;;;;;;;6.82;2.97;;;;;;;;;;4958092;28;20047;-91
2021/08/25 13:23:06;;;;;;;6.03;2.85;;;;;;;;;;4974153;28;20072;-89
2021/08/25 13:25:35;;;;;;;8.10;3.08;;;;;;;;;;4973981;28;20051;-90
2021/08/25 13:28:08;;;;;;;7.10;3.05;;;;;;;;;;4974496;28;20588;-88
2021/08/25 13:30:37;;;;;;;6.28;2.97;;;;;;;;;;4957032;28;20053;-90
2021/08/25 13:33:05;;;;;;;6.22;2.55;;;;;;;;;;4974461;28;20490;-89
2021/08/25 13:35:34;;;;;;;7.70;3.00;;;;;;;;;;4973331;28;20094;-92
2021/08/25 13:38:02;;;;;;;7.05;3.00;;;;;;;;;;4973875;28;20061;-92
2021/08/25 13:40:36;;;;;;;6.13;3.42;;;;;;;;;;4973607;28;20750;-92
2021/08/25 13:43:05;;;;;;;9.05;4.10;;;;;;;;;;4974319;28;20055;-92
2021/08/25 13:45:34;;;;;;;6.38;3.22;;;;;;;;;;4975221;28;20079;-92
2021/08/25 13:48:03;;;;;;;8.82;3.55;;;;;;;;;;4974294;28;20085;-90
2021/08/25 13:50:32;;;;;;;5.90;2.97;;;;;;;;;;4974918;28;20071;-92
2021/08/25 13:53:00;;;;;;;5.40;2.70;;;;;;;;;;4975694;28;20054;-92
2021/08/25 13:55:29;;;;;;;6.35;3.30;;;;;;;;;;4974459;28;20550;-88
2021/08/25 13:57:59;;;;;;;8.50;2.92;;;;;;;;;;4977308;28;20579;-92
2021/08/25 14:00:28;;;;;;;7.75;2.97;;;;;;;;;;4978696;28;20146;-92
2021/08/25 14:02:57;;;;;;;7.55;3.10;;;;;;;;;;4958892;28;20050;-89
2021/08/25 14:05:27;;;;;;;6.32;3.17;;;;;;;;;;4973849;28;20133;-89
2021/08/25 14:07:55;;;;;;;5.78;2.70;;;;;;;;;;4971330;28;20074;-90
2021/08/25 14:10:26;;;;;;;7.10;3.30;;;;;;;;;;4974915;28;20132;-92
2021/08/25 14:12:56;;;;;;;7.07;3.20;;;;;;;;;;4976587;28;20457;-92
2021/08/25 14:15:31;;;;;;;6.80;3.30;;;;;;;;;;4973648;28;20043;-92
2021/08/25 14:18:01;;;;;;;5.90;2.97;;;;;;;;;;4957511;28;20047;-88
2021/08/25 14:20:29;;;;;;;5.65;2.80;;;;;;;;;;4974174;28;20054;-89
2021/08/25 14:22:57;;;;;;;8.13;3.25;;;;;;;;;;4974413;28;20109;-91
2021/08/25 14:25:26;;;;;;;7.07;2.72;;;;;;;;;;4956374;28;20055;-91
2021/08/25 14:27:55;;;;;;;7.80;3.40;;;;;;;;;;4974706;28;20102;-90
2021/08/25 14:30:23;;;;;;;7.85;3.40;;;;;;;;;;4974500;28;20049;-91
2021/08/25 14:32:53;;;;;;;6.97;3.10;;;;;;;;;;4973623;28;20082;-91
2021/08/25 14:35:32;;;;;;;8.25;3.17;;;;;;;;;;4972863;28;20085;-91
2021/08/25 14:38:00;;;;;;;9.93;3.38;;;;;;;;;;4974126;28;20137;-91
2021/08/25 14:40:29;;;;;;;7.70;3.05;;;;;;;;;;4974566;28;20058;-88
2021/08/25 14:42:57;;;;;;;7.75;3.15;;;;;;;;;;4974091;28;20082;-91
2021/08/25 14:45:26;;;;;;;6.70;3.20;;;;;;;;;;4973116;28;20046;-91
2021/08/25 14:47:58;;;;;;;7.03;2.70;;;;;;;;;;4968552;28;20047;-92
2021/08/25 14:50:27;;;;;;;5.30;2.70;;;;;;;;;;4959595;28;20061;-91
2021/08/25 14:52:55;;;;;;;6.80;2.72;;;;;;;;;;4974657;28;20324;-91
2021/08/25 14:55:28;;;;;;;9.02;3.20;;;;;;;;;;4972603;28;20491;-89
2021/08/25 14:57:56;;;;;;;7.20;3.28;;;;;;;;;;4973590;28;20047;-89
2021/08/25 15:00:26;;;;;;;7.43;3.28;;;;;;;;;;4974551;28;20447;-91